BWU weather

Sydney Bankstown Airport
Sydney, New South Wales, Australia

Public forecast

Using degrees Celsius for public forecast. Weather courtesy of forecast.io.

METAR (pilot weather report)

Closest report is Sydney Kingsford Smith International Airport, 9.5 nm (17.6 km) E. Retrieved 2018/04/24 06:30 UTC (0 seconds ago):

YSSY 240630Z 14007KT CAVOK 21/14 Q1016 NOSIG

TAF (pilot weather forecast)

Forecast is more than 12 hours old.

Closest forecast is Sydney Kingsford Smith International Airport, 9.5 nm (17.6 km) E. Retrieved 2018/04/23 00:00 UTC (1 day ago):

TAF YSSY 232303Z 2400/2506 11010KT CAVOK FM241200 24006KT 9999 SCT025 FM250000 16015KT 9999 -SHRA SCT020 SCT030 INTER 2503/2506 4000 SHRA BKN015